Flemington, NJ

6:42 PM EST on November 25, 2014 (GMT -0500)
Voorhees Corner | Change Station
CLOSE
Current Station
Personal Weather Station
Location: Flemington, NJ
Elevation: 144 ft
Nearby Weather Stations
Active Advisory: Winter Storm Warning

Elev 144 ft 40.50 °N, 74.81 °W | Updated 8 seconds ago

Clear
Clear
43.7 °F
Feels Like 44 °F
N
2.2
Wind Variable Wind from SW
Gusts 2.2 mph

Today
High -- | Low -- °F
--% Chance of Precip.
Yesterday
High -- | Low -- °F
Precip. -- in
6:56 AM 4:35 PM
Waxing Crescent, 14% visible
Pressure 30.04 in
Visibility 10.0 miles
Clouds Clear
Windchill 44 °F
Dew Point 26 °F
Humidity 49%
Rainfall 0.00 in
Snow Depth Not available.
UV 0 out of 12
Pollen .10 out of 12
Air Quality Not available.
Flu Activity Not available.
METAR KSMQ 252253Z AUTO 00000KT 10SM CLR 06/00 A3003 RMK AO2 SLP171 T00610000

More Conditions Fewer Conditions

Pressure 30.04 in
Visibility 10.0 miles
Clouds Clear
Windchill 44 °F
Dew Point 26 °F
Humidity 49%
Rainfall 0.00 in
Snow Depth Not available.
UV 0 out of 12
Pollen .10 out of 12
Air Quality Not available.
Flu Activity Not available.
METAR KSMQ 252253Z AUTO 00000KT 10SM CLR 06/00 A3003 RMK AO2 SLP171 T00610000

More Conditions Fewer Conditions

10-Day Weather Forecast

Almanac

Astronomy

Nov. 25, 2014 Rise Set
Actual Time
Civil Twilight
Nautical Twilight
Astronomical Twilight
Moon
Length of Visible Light
Length of Day
Tomorrow will be .
, % of the Moon is Illuminated

Today's Extremes

State Highs State Lows

Community

WunderPhotos

Upload Photos

1,773,624 photos uploaded!

WunderBlogs® & News

Nearby

Air Quality

  Air Quality AQ Index Pollutant
Not available.

Snow Depth

Station Depth Elevation

Earthquake Activity

City Distance Mag. Time & Date
Minimum magnitude displayed is 2.5.

Coastal Water Temperatures

Place Temperature

Nearby Weather Stations